Time;durP1;ratioP1;P1;durP2;ratioP2;P2;SDS_P1;SDS_P2;PMS_P1;PMS_P2;Temp;Humidity;BMP_temperature;BMP_pressure;BME280_temperature;BME280_humidity;BME280_pressure;Samples;Min_cycle;Max_cycle;Signal;HPM_P1;HPM_P2
2021/01/28 00:00:35;;;;;;;33.03;29.53;;;;;21.20;99910.00;;;;2078782;28;20289;-51
2021/01/28 00:01:35;;;;;;;35.08;30.20;;;;;21.20;99910.00;;;;2078909;28;25998;-55
2021/01/28 00:02:35;;;;;;;32.90;29.23;;;;;21.20;99913.00;;;;2078732;28;20225;-51
2021/01/28 00:03:36;;;;;;;34.50;29.40;;;;;21.20;99906.00;;;;2078965;28;20240;-51
2021/01/28 00:04:36;;;;;;;32.93;29.03;;;;;21.20;99909.00;;;;2077771;28;20210;-52
2021/01/28 00:05:38;;;;;;;31.70;28.40;;;;;21.20;99905.00;;;;2078776;28;20301;-51
2021/01/28 00:06:38;;;;;;;35.95;30.02;;;;;21.20;99914.00;;;;2078802;28;20217;-51
2021/01/28 00:07:38;;;;;;;32.67;29.20;;;;;21.20;99912.00;;;;2078643;28;20279;-53
2021/01/28 00:08:39;;;;;;;32.33;28.17;;;;;21.20;99911.00;;;;2078428;28;20218;-52
2021/01/28 00:09:40;;;;;;;34.40;28.90;;;;;21.20;99908.00;;;;2078899;28;20218;-51
2021/01/28 00:10:40;;;;;;;31.53;27.53;;;;;21.20;99907.00;;;;2078832;28;20499;-52
2021/01/28 00:11:40;;;;;;;31.93;28.43;;;;;21.10;99903.00;;;;2078519;28;20618;-52
2021/01/28 00:12:41;;;;;;;33.40;28.40;;;;;21.10;99900.00;;;;2078457;28;20301;-51
2021/01/28 00:13:41;;;;;;;31.03;27.73;;;;;21.10;99903.00;;;;2079024;28;20602;-51
2021/01/28 00:14:41;;;;;;;31.60;27.30;;;;;21.10;99900.00;;;;2077957;28;20218;-52
2021/01/28 00:15:42;;;;;;;30.43;27.00;;;;;21.10;99903.00;;;;2078599;28;20210;-52
2021/01/28 00:16:42;;;;;;;29.90;26.20;;;;;21.10;99906.00;;;;2078577;28;20217;-51
2021/01/28 00:17:43;;;;;;;29.47;26.23;;;;;21.10;99903.00;;;;2078773;28;20221;-52
2021/01/28 00:18:43;;;;;;;29.27;25.40;;;;;21.10;99903.00;;;;2078455;28;20210;-51
2021/01/28 00:19:44;;;;;;;30.67;26.60;;;;;21.10;99887.00;;;;2078592;28;20234;-50
2021/01/28 00:20:46;;;;;;;29.57;26.33;;;;;21.10;99900.00;;;;2078669;28;20218;-51
2021/01/28 00:21:46;;;;;;;31.40;26.98;;;;;21.10;99887.00;;;;2078460;28;20697;-52
2021/01/28 00:22:47;;;;;;;29.53;25.97;;;;;21.10;99892.00;;;;2078585;28;20321;-53
2021/01/28 00:23:47;;;;;;;28.93;25.83;;;;;21.10;99891.00;;;;2078566;28;20226;-52
2021/01/28 00:24:47;;;;;;;29.27;25.97;;;;;21.10;99897.00;;;;2066398;28;20218;-55
2021/01/28 00:25:48;;;;;;;29.07;25.97;;;;;21.10;99897.00;;;;2078170;28;20304;-54
2021/01/28 00:26:48;;;;;;;28.00;25.10;;;;;21.10;99899.00;;;;2078754;28;20610;-53
2021/01/28 00:27:49;;;;;;;27.73;24.83;;;;;21.10;99892.00;;;;2078785;28;20241;-53
2021/01/28 00:28:49;;;;;;;29.27;25.43;;;;;21.10;99893.00;;;;2078216;28;20226;-53
2021/01/28 00:29:49;;;;;;;26.77;23.87;;;;;21.00;99899.00;;;;2078262;28;20310;-52
2021/01/28 00:30:51;;;;;;;27.20;24.00;;;;;21.00;99901.00;;;;2078457;28;20240;-51
2021/01/28 00:31:53;;;;;;;26.88;23.98;;;;;21.00;99892.00;;;;2078554;28;20214;-51
2021/01/28 00:32:54;;;;;;;27.33;24.48;;;;;21.00;99889.00;;;;2078609;28;20235;-52
2021/01/28 00:33:54;;;;;;;30.77;25.80;;;;;21.00;99888.00;;;;2078703;28;20674;-51
2021/01/28 00:34:54;;;;;;;27.90;24.67;;;;;21.00;99890.00;;;;2077826;28;20297;-51
2021/01/28 00:35:56;;;;;;;26.27;23.60;;;;;21.00;99883.00;;;;2078694;28;20313;-50
2021/01/28 00:36:56;;;;;;;27.60;24.65;;;;;21.00;99894.00;;;;2078750;28;20301;-51
2021/01/28 00:37:57;;;;;;;26.47;23.73;;;;;21.00;99888.00;;;;2078551;28;21071;-51
2021/01/28 00:38:57;;;;;;;25.90;23.30;;;;;21.00;99889.00;;;;2078541;28;20225;-51
2021/01/28 00:39:57;;;;;;;27.57;24.30;;;;;21.00;99886.00;;;;2070222;28;20213;-51
2021/01/28 00:40:58;;;;;;;26.23;23.43;;;;;21.00;99890.00;;;;2085975;28;20217;-52
2021/01/28 00:41:59;;;;;;;25.77;23.07;;;;;21.00;99884.00;;;;2085058;28;20256;-52
2021/01/28 00:42:59;;;;;;;25.03;22.43;;;;;21.00;99881.00;;;;2078727;28;20309;-51
2021/01/28 00:43:59;;;;;;;26.40;23.67;;;;;21.00;99889.00;;;;2078763;28;20237;-51
2021/01/28 00:45:00;;;;;;;26.07;23.33;;;;;21.00;99888.00;;;;2077750;28;20216;-52
2021/01/28 00:46:00;;;;;;;25.83;23.13;;;;;21.00;99884.00;;;;2078683;28;20210;-51
2021/01/28 00:47:00;;;;;;;27.40;23.33;;;;;21.00;99890.00;;;;2078869;28;20544;-51
2021/01/28 00:48:01;;;;;;;24.47;21.93;;;;;21.00;99895.00;;;;2069915;28;20245;-51
2021/01/28 00:49:02;;;;;;;24.27;21.75;;;;;21.00;99894.00;;;;2085425;28;20263;-52
2021/01/28 00:50:02;;;;;;;24.10;21.60;;;;;21.00;99888.00;;;;2084027;28;20610;-51
2021/01/28 00:51:03;;;;;;;23.13;20.73;;;;;21.00;99904.00;;;;2077797;28;20237;-51
2021/01/28 00:52:04;;;;;;;23.53;21.13;;;;;21.00;99898.00;;;;2075856;28;20254;-53
2021/01/28 00:53:04;;;;;;;24.90;21.87;;;;;20.90;99898.00;;;;2077605;28;20552;-51
2021/01/28 00:54:05;;;;;;;23.53;20.93;;;;;20.80;99891.00;;;;2078013;28;21008;-52
2021/01/28 00:55:06;;;;;;;24.70;22.10;;;;;20.80;99898.00;;;;2076409;28;20229;-51
2021/01/28 00:56:07;;;;;;;24.23;21.60;;;;;20.90;99892.00;;;;2077487;28;20305;-51
2021/01/28 00:57:07;;;;;;;23.20;20.77;;;;;20.90;99892.00;;;;2078119;28;20213;-50
2021/01/28 00:58:08;;;;;;;23.43;20.90;;;;;20.90;99890.00;;;;2075931;28;20313;-51
2021/01/28 00:59:08;;;;;;;24.00;21.23;;;;;20.90;99874.00;;;;2077951;28;20337;-52
2021/01/28 01:00:19;;;;;;;23.43;20.93;;;;;20.90;99881.00;;;;2078228;28;20465;-52
2021/01/28 01:01:20;;;;;;;23.00;20.58;;;;;20.90;99866.00;;;;2078028;28;20225;-52
2021/01/28 01:02:20;;;;;;;23.27;20.80;;;;;20.90;99854.00;;;;2077670;28;20267;-51
2021/01/28 01:03:23;;;;;;;23.40;20.60;;;;;20.90;99859.00;;;;2077555;28;20348;-51
2021/01/28 01:04:23;;;;;;;22.38;20.05;;;;;20.90;99866.00;;;;2077553;28;20293;-51
2021/01/28 01:05:26;;;;;;;23.40;20.90;;;;;20.80;99849.00;;;;2077004;28;20702;-52
2021/01/28 01:06:26;;;;;;;22.80;20.50;;;;;20.80;99850.00;;;;2077720;28;20297;-51
2021/01/28 01:07:26;;;;;;;23.27;20.77;;;;;20.90;99846.00;;;;2077298;28;20233;-52
2021/01/28 01:08:29;;;;;;;23.20;20.70;;;;;20.80;99842.00;;;;2073888;28;20233;-51
2021/01/28 01:09:29;;;;;;;23.27;20.75;;;;;20.80;99841.00;;;;2077960;28;20214;-53
2021/01/28 01:10:41;;;;;;;23.00;20.50;;;;;20.80;99837.00;;;;2077547;28;20217;-51
2021/01/28 01:11:42;;;;;;;22.60;20.15;;;;;20.80;99838.00;;;;2078190;28;20305;-52
2021/01/28 01:12:42;;;;;;;22.20;19.60;;;;;20.70;99840.00;;;;2077996;28;20225;-51
2021/01/28 01:13:42;;;;;;;21.87;19.57;;;;;20.80;99838.00;;;;2070782;28;20218;-52
2021/01/28 01:14:43;;;;;;;22.43;20.10;;;;;20.80;99838.00;;;;2077036;28;20209;-52
2021/01/28 01:15:43;;;;;;;21.50;19.30;;;;;20.80;99829.00;;;;2077886;28;20221;-52
2021/01/28 01:16:44;;;;;;;20.70;18.63;;;;;20.80;99830.00;;;;2077872;28;20221;-51
2021/01/28 01:17:44;;;;;;;21.40;19.20;;;;;20.80;99826.00;;;;2078010;28;20226;-51
2021/01/28 01:18:44;;;;;;;20.10;17.90;;;;;20.80;99828.00;;;;2077514;28;20225;-54
2021/01/28 01:19:45;;;;;;;20.80;18.60;;;;;20.80;99827.00;;;;2077647;28;20222;-52
2021/01/28 01:20:45;;;;;;;21.37;18.97;;;;;20.80;99823.00;;;;2078338;28;20305;-53
2021/01/28 01:21:45;;;;;;;22.03;19.60;;;;;20.80;99826.00;;;;2078167;28;20221;-52
2021/01/28 01:22:46;;;;;;;21.63;19.40;;;;;20.80;99821.00;;;;2078215;28;20213;-52
2021/01/28 01:23:46;;;;;;;20.37;18.37;;;;;20.80;99818.00;;;;2078616;28;20221;-52
2021/01/28 01:24:46;;;;;;;21.93;19.60;;;;;20.80;99821.00;;;;2077458;28;20217;-53
2021/01/28 01:25:47;;;;;;;20.47;18.47;;;;;20.80;99821.00;;;;2078703;28;20264;-53
2021/01/28 01:26:47;;;;;;;20.47;17.87;;;;;20.80;99817.00;;;;2078410;28;20214;-51
2021/01/28 01:27:48;;;;;;;20.67;18.63;;;;;20.80;99822.00;;;;2078642;28;20705;-51
2021/01/28 01:28:48;;;;;;;19.93;17.83;;;;;20.80;99827.00;;;;2078216;28;20654;-51
2021/01/28 01:29:48;;;;;;;20.60;18.50;;;;;20.80;99819.00;;;;2077109;28;20225;-51
2021/01/28 01:30:49;;;;;;;20.33;18.23;;;;;20.80;99820.00;;;;2077399;28;20947;-52
2021/01/28 01:31:49;;;;;;;20.03;18.10;;;;;20.80;99812.00;;;;2078388;28;20730;-53
2021/01/28 01:32:49;;;;;;;21.33;18.40;;;;;20.80;99817.00;;;;2078284;28;20637;-52
2021/01/28 01:33:50;;;;;;;19.27;17.27;;;;;20.70;99813.00;;;;2078521;28;20214;-52
2021/01/28 01:34:50;;;;;;;20.20;18.10;;;;;20.80;99817.00;;;;2077559;28;20214;-52
2021/01/28 01:35:50;;;;;;;18.87;16.97;;;;;20.80;99822.00;;;;2078268;28;20218;-51
2021/01/28 01:36:51;;;;;;;20.10;18.00;;;;;20.80;99822.00;;;;2078216;28;20210;-52
2021/01/28 01:37:52;;;;;;;18.47;16.60;;;;;20.70;99811.00;;;;2078509;28;20210;-53
2021/01/28 01:38:52;;;;;;;19.42;17.52;;;;;20.70;99818.00;;;;2078332;28;20692;-51
2021/01/28 01:39:53;;;;;;;18.63;16.70;;;;;20.70;99812.00;;;;2078339;28;20222;-52
2021/01/28 01:40:57;;;;;;;18.97;16.97;;;;;20.70;99810.00;;;;2078472;28;20232;-51
2021/01/28 01:41:57;;;;;;;19.75;17.67;;;;;20.70;99819.00;;;;2078879;28;20229;-53
2021/01/28 01:42:58;;;;;;;19.83;16.97;;;;;20.70;99805.00;;;;2079277;28;20998;-54
2021/01/28 01:44:01;;;;;;;18.90;17.03;;;;;20.70;99802.00;;;;2079894;28;20287;-52
2021/01/28 01:45:05;;;;;;;20.58;18.33;;;;;20.70;99802.00;;;;2078870;28;20218;-52
2021/01/28 01:46:08;;;;;;;18.85;16.85;;;;;20.70;99798.00;;;;2079145;28;20218;-52
2021/01/28 01:47:48;;;;;;;18.88;16.88;;;;;20.70;99798.00;;;;2067308;28;20245;-52
2021/01/28 01:48:50;;;;;;;19.30;17.23;;;;;20.70;99799.00;;;;2069630;28;20223;-53
2021/01/28 01:49:50;;;;;;;18.80;16.80;;;;;20.70;99791.00;;;;2070991;28;20289;-51
2021/01/28 01:51:12;;;;;;;19.47;17.23;;;;;20.70;99799.00;;;;2070811;28;20215;-51
2021/01/28 01:52:13;;;;;;;17.73;15.93;;;;;20.70;99799.00;;;;2079163;28;20222;-50
2021/01/28 01:53:25;;;;;;;19.43;17.13;;;;;20.70;99794.00;;;;2079129;28;20305;-51
2021/01/28 01:54:32;;;;;;;18.85;16.45;;;;;20.70;99785.00;;;;2079485;28;20279;-51
2021/01/28 01:55:32;;;;;;;18.15;15.82;;;;;20.70;99788.00;;;;2068380;28;20207;-51
2021/01/28 01:56:38;;;;;;;17.73;15.83;;;;;20.70;99788.00;;;;2071052;28;20301;-50
2021/01/28 01:57:38;;;;;;;18.95;16.90;;;;;20.70;99783.00;;;;2070708;28;20211;-52
2021/01/28 01:58:46;;;;;;;17.93;15.90;;;;;20.70;99784.00;;;;2071115;28;20215;-52
2021/01/28 01:59:49;;;;;;;17.23;15.48;;;;;20.60;99779.00;;;;2070324;28;20264;-53
2021/01/28 02:00:49;;;;;;;18.77;16.58;;;;;20.70;99772.00;;;;2079258;28;20756;-52
2021/01/28 02:01:56;;;;;;;18.70;16.70;;;;;20.60;99779.00;;;;2079771;28;20214;-52
2021/01/28 02:03:00;;;;;;;16.95;15.23;;;;;20.70;99769.00;;;;2079127;28;20221;-51
2021/01/28 02:04:01;;;;;;;18.30;16.38;;;;;20.60;99771.00;;;;2078822;28;20268;-51
2021/01/28 02:05:23;;;;;;;19.13;17.07;;;;;20.60;99768.00;;;;2066576;28;20261;-50
2021/01/28 02:06:27;;;;;;;18.27;15.38;;;;;20.60;99763.00;;;;2079372;28;20205;-50
2021/01/28 02:07:28;;;;;;;17.95;15.90;;;;;20.60;99758.00;;;;2075562;28;21012;-52
2021/01/28 02:08:28;;;;;;;18.80;16.00;;;;;20.60;99758.00;;;;2077654;28;20228;-52
2021/01/28 02:09:28;;;;;;;17.87;16.07;;;;;20.60;99754.00;;;;2066846;28;20688;-52
2021/01/28 02:10:29;;;;;;;16.90;15.07;;;;;20.60;99754.00;;;;2067036;28;20206;-51
2021/01/28 02:11:29;;;;;;;17.40;15.57;;;;;20.60;99760.00;;;;2079948;28;20217;-51
2021/01/28 02:12:29;;;;;;;17.90;15.97;;;;;20.60;99765.00;;;;2079652;28;20209;-52
2021/01/28 02:13:30;;;;;;;18.77;16.77;;;;;20.60;99755.00;;;;2079882;28;20668;-51
2021/01/28 02:14:30;;;;;;;18.20;15.83;;;;;20.60;99759.00;;;;2078354;28;20604;-55
2021/01/28 02:15:30;;;;;;;17.07;15.30;;;;;20.60;99758.00;;;;2070933;28;20221;-52
2021/01/28 02:16:32;;;;;;;17.70;15.80;;;;;20.60;99755.00;;;;2070732;28;20210;-52
2021/01/28 02:17:33;;;;;;;18.50;15.18;;;;;20.60;99754.00;;;;2071144;28;20222;-51
2021/01/28 02:18:33;;;;;;;16.50;14.80;;;;;20.60;99753.00;;;;2078714;28;20202;-52
2021/01/28 02:19:51;;;;;;;18.03;16.13;;;;;20.60;99755.00;;;;2078520;28;20214;-50
2021/01/28 02:21:27;;;;;;;16.52;14.93;;;;;20.60;99754.00;;;;2073190;28;20222;-51
2021/01/28 02:22:45;;;;;;;15.98;14.00;;;;;20.60;99742.00;;;;2078811;28;20202;-51
2021/01/28 02:24:10;;;;;;;16.80;15.00;;;;;20.60;99732.00;;;;2079316;28;20214;-50
2021/01/28 02:25:20;;;;;;;17.65;15.85;;;;;20.60;99733.00;;;;2078752;28;20657;-51
2021/01/28 02:26:20;;;;;;;16.13;14.45;;;;;20.60;99732.00;;;;2079135;28;20218;-50
2021/01/28 02:27:21;;;;;;;17.17;15.33;;;;;20.60;99739.00;;;;2078624;28;20202;-53
2021/01/28 02:28:22;;;;;;;15.20;13.70;;;;;20.50;99732.00;;;;2078898;28;20324;-51
2021/01/28 02:29:23;;;;;;;15.95;14.30;;;;;20.60;99732.00;;;;2079490;28;20216;-51
2021/01/28 02:30:25;;;;;;;17.23;15.43;;;;;20.50;99731.00;;;;2079837;28;20209;-51
2021/01/28 02:31:27;;;;;;;16.50;14.70;;;;;20.60;99723.00;;;;2079726;28;20230;-51
2021/01/28 02:32:27;;;;;;;17.30;14.48;;;;;20.60;99725.00;;;;2066786;28;20213;-51
2021/01/28 02:33:45;;;;;;;16.70;14.40;;;;;20.60;99734.00;;;;2066669;28;20640;-52
2021/01/28 02:34:45;;;;;;;16.95;15.13;;;;;20.60;99726.00;;;;2070066;28;20262;-52
2021/01/28 02:35:48;;;;;;;14.80;13.30;;;;;20.60;99727.00;;;;2070656;28;20210;-51
2021/01/28 02:36:50;;;;;;;16.08;14.02;;;;;20.50;99729.00;;;;2072595;28;20217;-53
2021/01/28 02:37:51;;;;;;;16.05;14.25;;;;;20.50;99730.00;;;;2079618;28;20209;-52
2021/01/28 02:38:51;;;;;;;15.60;14.00;;;;;20.60;99737.00;;;;2079675;28;20202;-51
2021/01/28 02:39:52;;;;;;;16.00;14.30;;;;;20.50;99738.00;;;;2079568;28;20209;-51
2021/01/28 02:40:52;;;;;;;14.53;13.03;;;;;20.50;99736.00;;;;2079712;28;20220;-51
2021/01/28 02:42:17;;;;;;;15.57;13.90;;;;;20.50;99730.00;;;;2078435;28;20713;-51
2021/01/28 02:43:17;;;;;;;15.15;13.55;;;;;20.50;99735.00;;;;2068688;28;20317;-51
2021/01/28 02:44:18;;;;;;;16.43;14.63;;;;;20.50;99715.00;;;;2075905;28;20679;-52
2021/01/28 02:45:20;;;;;;;16.33;13.33;;;;;20.50;99706.00;;;;2070709;28;20727;-52
2021/01/28 02:46:21;;;;;;;14.95;12.88;;;;;20.50;99714.00;;;;2071553;28;20291;-52
2021/01/28 02:47:22;;;;;;;14.47;12.97;;;;;20.50;99714.00;;;;2071132;28;20219;-52
2021/01/28 02:48:22;;;;;;;14.83;13.20;;;;;20.50;99710.00;;;;2070959;28;20218;-52
2021/01/28 02:49:22;;;;;;;14.80;13.23;;;;;20.50;99716.00;;;;2070168;28;20226;-51
2021/01/28 02:50:23;;;;;;;15.80;14.10;;;;;20.50;99710.00;;;;2069642;28;20309;-52
2021/01/28 02:51:23;;;;;;;14.20;12.80;;;;;20.50;99706.00;;;;2074603;28;20226;-53
2021/01/28 02:52:23;;;;;;;14.80;13.30;;;;;20.50;99700.00;;;;2079147;28;20218;-52
2021/01/28 02:53:24;;;;;;;15.20;13.57;;;;;20.50;99699.00;;;;2079333;28;20275;-52
2021/01/28 02:54:24;;;;;;;15.93;14.00;;;;;20.50;99689.00;;;;2075195;28;20218;-51
2021/01/28 02:55:26;;;;;;;14.50;13.00;;;;;20.50;99688.00;;;;2075620;28;20675;-51
2021/01/28 02:56:27;;;;;;;13.48;12.05;;;;;20.50;99691.00;;;;2079317;28;20224;-50
2021/01/28 02:57:27;;;;;;;12.83;11.53;;;;;20.50;99650.00;;;;2079239;28;20705;-51
2021/01/28 02:58:27;;;;;;;13.17;11.73;;;;;20.50;99684.00;;;;2079155;28;20709;-52
2021/01/28 02:59:28;;;;;;;12.43;11.00;;;;;20.50;99686.00;;;;2079294;28;20245;-52
2021/01/28 03:00:31;;;;;;;13.03;11.73;;;;;20.50;99688.00;;;;2077905;28;20225;-51
2021/01/28 03:01:31;;;;;;;11.98;10.68;;;;;20.50;99675.00;;;;2076007;28;20214;-51
2021/01/28 03:02:32;;;;;;;13.20;11.43;;;;;20.50;99672.00;;;;2065809;28;20554;-51
2021/01/28 03:03:32;;;;;;;12.40;11.10;;;;;20.50;99662.00;;;;2077506;28;20713;-51
2021/01/28 03:04:32;;;;;;;12.73;11.10;;;;;20.50;99664.00;;;;2078415;28;20210;-50
2021/01/28 03:05:33;;;;;;;13.97;12.13;;;;;20.50;99664.00;;;;2079415;28;21189;-50
2021/01/28 03:06:33;;;;;;;13.37;11.97;;;;;20.50;99655.00;;;;2079556;28;20218;-51
2021/01/28 03:07:34;;;;;;;12.50;11.20;;;;;20.50;99660.00;;;;2079066;28;20225;-53
2021/01/28 03:08:37;;;;;;;11.73;10.53;;;;;20.50;99655.00;;;;2078387;28;20690;-53
2021/01/28 03:09:37;;;;;;;13.77;11.40;;;;;20.50;99647.00;;;;2078898;28;20689;-51
2021/01/28 03:10:38;;;;;;;13.37;11.80;;;;;20.50;99653.00;;;;2079343;28;20225;-53
2021/01/28 03:11:38;;;;;;;11.63;10.43;;;;;20.50;99652.00;;;;2078993;28;20213;-52
2021/01/28 03:12:38;;;;;;;12.27;11.00;;;;;20.50;99649.00;;;;2079353;28;20671;-51
2021/01/28 03:13:39;;;;;;;13.60;11.33;;;;;20.50;99642.00;;;;2079337;28;20623;-53
2021/01/28 03:14:39;;;;;;;12.23;10.90;;;;;20.50;99640.00;;;;2078608;28;20289;-51
2021/01/28 03:15:39;;;;;;;10.83;9.77;;;;;20.50;99633.00;;;;2079239;28;20578;-51
2021/01/28 03:16:40;;;;;;;12.77;10.97;;;;;20.50;99636.00;;;;2079408;28;20571;-50
2021/01/28 03:17:40;;;;;;;11.23;9.40;;;;;20.50;99643.00;;;;2078906;28;20233;-53
2021/01/28 03:18:40;;;;;;;12.50;10.50;;;;;20.50;99637.00;;;;2079353;28;20271;-51
2021/01/28 03:19:41;;;;;;;11.80;10.60;;;;;20.40;99627.00;;;;2078890;28;20210;-50
2021/01/28 03:20:41;;;;;;;12.23;10.93;;;;;20.40;99625.00;;;;2079491;28;20219;-51
2021/01/28 03:21:43;;;;;;;12.20;10.97;;;;;20.40;99627.00;;;;2077935;28;20217;-52
2021/01/28 03:22:43;;;;;;;13.02;11.73;;;;;20.40;99624.00;;;;2079332;28;20343;-53
2021/01/28 03:23:43;;;;;;;11.80;10.60;;;;;20.40;99614.00;;;;2079034;28;20217;-52
2021/01/28 03:24:44;;;;;;;11.60;10.13;;;;;20.40;99608.00;;;;2078389;28;20221;-50
2021/01/28 03:25:44;;;;;;;12.43;11.13;;;;;20.50;99620.00;;;;2079136;28;20206;-52
2021/01/28 03:26:45;;;;;;;12.10;10.33;;;;;20.40;99623.00;;;;2079435;28;20230;-52
2021/01/28 03:27:46;;;;;;;11.77;10.50;;;;;20.40;99625.00;;;;2079079;28;20217;-52
2021/01/28 03:28:46;;;;;;;11.85;10.65;;;;;20.40;99621.00;;;;2079303;28;20758;-52
2021/01/28 03:29:47;;;;;;;12.17;10.97;;;;;20.40;99627.00;;;;2079272;28;20220;-51
2021/01/28 03:30:47;;;;;;;12.20;10.90;;;;;20.40;99622.00;;;;2079201;28;20300;-52
2021/01/28 03:31:47;;;;;;;12.90;10.00;;;;;20.40;99629.00;;;;2079025;28;20967;-53
2021/01/28 03:32:48;;;;;;;11.50;10.30;;;;;20.40;99629.00;;;;2078835;28;20218;-51
2021/01/28 03:33:48;;;;;;;11.10;9.97;;;;;20.40;99632.00;;;;2079008;28;20279;-53
2021/01/28 03:34:48;;;;;;;11.83;10.63;;;;;20.40;99632.00;;;;2078059;28;20261;-53
2021/01/28 03:35:49;;;;;;;11.00;9.90;;;;;20.40;99639.00;;;;2079085;28;20210;-52
2021/01/28 03:36:50;;;;;;;11.70;10.50;;;;;20.40;99633.00;;;;2079111;28;20279;-51
2021/01/28 03:37:50;;;;;;;12.60;11.30;;;;;20.40;99631.00;;;;2078896;28;20737;-51
2021/01/28 03:38:51;;;;;;;11.27;10.10;;;;;20.40;99641.00;;;;2079200;28;20210;-51
2021/01/28 03:39:51;;;;;;;11.53;10.27;;;;;20.40;99640.00;;;;2079214;28;20281;-51
2021/01/28 03:40:52;;;;;;;12.97;11.20;;;;;20.40;99635.00;;;;2079224;28;20292;-50
2021/01/28 03:41:52;;;;;;;11.40;9.57;;;;;20.40;99629.00;;;;2079242;28;20220;-50
2021/01/28 03:42:52;;;;;;;11.80;10.57;;;;;20.40;99629.00;;;;2078977;28;20453;-51
2021/01/28 03:43:53;;;;;;;11.67;10.47;;;;;20.40;99626.00;;;;2079028;28;20209;-52
2021/01/28 03:44:53;;;;;;;10.77;9.67;;;;;20.40;99619.00;;;;2078600;28;20217;-52
2021/01/28 03:45:53;;;;;;;11.20;10.10;;;;;20.40;99626.00;;;;2079121;28;20679;-54
2021/01/28 03:46:54;;;;;;;11.13;10.03;;;;;20.40;99625.00;;;;2078448;28;20217;-50
2021/01/28 03:47:55;;;;;;;12.27;10.93;;;;;20.40;99617.00;;;;2078772;28;20225;-51
2021/01/28 03:48:55;;;;;;;11.57;10.38;;;;;20.40;99626.00;;;;2078960;28;20218;-51
2021/01/28 03:49:55;;;;;;;11.43;10.30;;;;;20.40;99625.00;;;;2079194;28;20206;-50
2021/01/28 03:50:56;;;;;;;11.33;10.10;;;;;20.40;99621.00;;;;2079276;28;20206;-50
2021/01/28 03:51:56;;;;;;;11.23;10.03;;;;;20.40;99618.00;;;;2078644;28;20312;-52
2021/01/28 03:52:56;;;;;;;12.30;11.10;;;;;20.40;99616.00;;;;2078950;28;20218;-51
2021/01/28 03:53:57;;;;;;;10.43;9.43;;;;;20.40;99618.00;;;;2078985;28;20221;-52
2021/01/28 03:54:57;;;;;;;11.50;10.20;;;;;20.40;99613.00;;;;2078618;28;20218;-53
2021/01/28 03:55:57;;;;;;;10.37;9.37;;;;;20.30;99617.00;;;;2078609;28;20222;-52
2021/01/28 03:56:58;;;;;;;10.73;9.63;;;;;20.30;99604.00;;;;2072841;28;20750;-51
2021/01/28 03:57:58;;;;;;;10.80;9.70;;;;;20.30;99602.00;;;;2078265;28;20253;-52
2021/01/28 03:58:59;;;;;;;11.87;9.70;;;;;20.40;99603.00;;;;2078833;28;20218;-51
2021/01/28 03:59:59;;;;;;;11.63;10.20;;;;;20.30;99601.00;;;;2077817;28;20232;-51
2021/01/28 04:00:59;;;;;;;9.40;8.47;;;;;20.30;99588.00;;;;2078714;28;20210;-54
2021/01/28 04:02:00;;;;;;;11.50;10.30;;;;;20.30;99594.00;;;;2078786;28;20217;-51
2021/01/28 04:03:00;;;;;;;10.40;9.40;;;;;20.30;99590.00;;;;2078936;28;20217;-51
2021/01/28 04:04:00;;;;;;;10.80;9.70;;;;;20.30;99586.00;;;;2078500;28;20221;-52
2021/01/28 04:05:01;;;;;;;11.47;10.30;;;;;20.30;99579.00;;;;2077774;28;20587;-51
2021/01/28 04:06:02;;;;;;;11.23;10.03;;;;;20.30;99578.00;;;;2079008;28;20214;-51
2021/01/28 04:07:02;;;;;;;10.30;9.30;;;;;20.30;99583.00;;;;2078548;28;20300;-52
2021/01/28 04:08:03;;;;;;;11.50;10.37;;;;;20.30;99578.00;;;;2078212;28;20221;-51
2021/01/28 04:09:04;;;;;;;10.10;9.10;;;;;20.30;99573.00;;;;2078891;28;20246;-51
2021/01/28 04:10:06;;;;;;;10.43;9.40;;;;;20.30;99577.00;;;;2078570;28;20452;-51
2021/01/28 04:11:06;;;;;;;9.88;8.60;;;;;20.30;99557.00;;;;2079028;28;20228;-51
2021/01/28 04:12:07;;;;;;;11.10;9.60;;;;;20.30;99576.00;;;;2078674;28;20224;-51
2021/01/28 04:13:07;;;;;;;10.87;9.50;;;;;20.30;99574.00;;;;2078742;28;20214;-51
2021/01/28 04:14:08;;;;;;;10.20;9.20;;;;;20.30;99582.00;;;;2078821;28;20299;-52
2021/01/28 04:15:09;;;;;;;9.93;8.93;;;;;20.30;99578.00;;;;2078112;28;20248;-52
2021/01/28 04:16:09;;;;;;;10.20;9.18;;;;;20.30;99582.00;;;;2078744;28;20214;-51
2021/01/28 04:17:09;;;;;;;9.80;8.80;;;;;20.30;99576.00;;;;2078811;28;20213;-52
2021/01/28 04:18:10;;;;;;;9.50;8.53;;;;;20.30;99583.00;;;;2078758;28;20221;-53
2021/01/28 04:19:10;;;;;;;9.60;8.70;;;;;20.30;99581.00;;;;2078687;28;20320;-51
2021/01/28 04:20:11;;;;;;;10.63;9.53;;;;;20.30;99576.00;;;;2078739;28;20205;-51
2021/01/28 04:21:11;;;;;;;9.67;8.77;;;;;20.30;99580.00;;;;2078804;28;20237;-51
2021/01/28 04:22:12;;;;;;;10.70;9.70;;;;;20.30;99580.00;;;;2078163;28;20521;-52
2021/01/28 04:23:12;;;;;;;9.20;8.27;;;;;20.30;99578.00;;;;2078594;28;20220;-53
2021/01/28 04:24:13;;;;;;;9.83;8.80;;;;;20.30;99581.00;;;;2078736;28;20210;-50
2021/01/28 04:25:13;;;;;;;10.43;9.00;;;;;20.30;99579.00;;;;2077871;28;20225;-51
2021/01/28 04:26:14;;;;;;;9.83;8.80;;;;;20.30;99583.00;;;;2078409;28;20217;-51
2021/01/28 04:27:14;;;;;;;10.20;9.23;;;;;20.30;99580.00;;;;2078773;28;20233;-52
2021/01/28 04:28:15;;;;;;;9.90;8.90;;;;;20.20;99585.00;;;;2078484;28;20238;-51
2021/01/28 04:29:15;;;;;;;10.23;9.10;;;;;20.30;99566.00;;;;2078880;28;20229;-52
2021/01/28 04:30:19;;;;;;;9.70;8.70;;;;;20.30;99571.00;;;;2078445;28;20210;-51
2021/01/28 04:31:19;;;;;;;10.20;9.30;;;;;20.30;99571.00;;;;2078948;28;20221;-52
2021/01/28 04:32:19;;;;;;;9.40;8.50;;;;;20.30;99565.00;;;;2078516;28;20210;-51
2021/01/28 04:33:20;;;;;;;9.57;8.67;;;;;20.30;99557.00;;;;2078780;28;20713;-50
2021/01/28 04:34:20;;;;;;;9.60;8.60;;;;;20.30;99572.00;;;;2078861;28;20214;-51
2021/01/28 04:35:20;;;;;;;10.07;9.10;;;;;20.20;99562.00;;;;2077763;28;20213;-52
2021/01/28 04:36:21;;;;;;;9.67;8.67;;;;;20.30;99554.00;;;;2078436;28;20301;-51
2021/01/28 04:37:21;;;;;;;10.37;9.37;;;;;20.20;99552.00;;;;2078534;28;20251;-52
2021/01/28 04:38:22;;;;;;;9.30;8.40;;;;;20.30;99549.00;;;;2078212;28;20210;-51
2021/01/28 04:39:22;;;;;;;10.63;9.57;;;;;20.30;99551.00;;;;2077521;28;20202;-51
2021/01/28 04:40:29;;;;;;;9.10;8.20;;;;;20.30;99543.00;;;;2078462;28;20728;-52
2021/01/28 04:41:30;;;;;;;9.00;8.15;;;;;20.20;99538.00;;;;2078079;28;20217;-51
2021/01/28 04:42:49;;;;;;;9.50;8.33;;;;;20.20;99542.00;;;;2077902;28;20253;-50
2021/01/28 04:43:50;;;;;;;9.13;8.23;;;;;20.20;99531.00;;;;2077768;28;20217;-53
2021/01/28 04:44:50;;;;;;;9.30;8.35;;;;;20.20;99532.00;;;;2076817;28;20305;-51
2021/01/28 04:45:51;;;;;;;9.67;8.67;;;;;20.20;99530.00;;;;2065767;28;20278;-53
2021/01/28 04:46:53;;;;;;;9.03;7.70;;;;;20.20;99525.00;;;;2057671;28;20712;-52
2021/01/28 04:47:55;;;;;;;7.95;7.25;;;;;20.20;99522.00;;;;2077883;28;20463;-51
2021/01/28 04:48:55;;;;;;;9.73;8.63;;;;;20.20;99509.00;;;;2077839;28;20625;-52
2021/01/28 04:49:57;;;;;;;8.67;7.90;;;;;20.20;99516.00;;;;2078051;28;20214;-51
2021/01/28 04:50:59;;;;;;;8.80;7.90;;;;;20.20;99517.00;;;;2069511;28;20226;-52
2021/01/28 04:52:01;;;;;;;9.02;8.13;;;;;20.20;99511.00;;;;2076819;28;20697;-52
2021/01/28 04:53:09;;;;;;;10.68;8.52;;;;;20.20;99512.00;;;;2077329;28;20225;-52
2021/01/28 04:54:22;;;;;;;9.07;8.18;;;;;20.20;99512.00;;;;2077786;28;20581;-51
2021/01/28 04:55:28;;;;;;;9.25;8.35;;;;;20.20;99507.00;;;;2062736;28;20233;-52
2021/01/28 04:56:29;;;;;;;8.50;7.70;;;;;20.20;99496.00;;;;2054040;28;20266;-52
2021/01/28 04:57:29;;;;;;;8.87;7.97;;;;;20.20;99505.00;;;;2051182;28;20211;-52
2021/01/28 04:58:30;;;;;;;8.93;8.03;;;;;20.20;99497.00;;;;2061092;28;20219;-50
2021/01/28 04:59:42;;;;;;;8.87;8.03;;;;;20.20;99498.00;;;;2067399;28;20237;-51
2021/01/28 05:00:43;;;;;;;8.10;7.30;;;;;20.20;99501.00;;;;2071338;28;20497;-51
2021/01/28 05:01:43;;;;;;;8.73;7.83;;;;;20.20;99502.00;;;;2078626;28;20238;-51
2021/01/28 05:02:43;;;;;;;8.60;7.80;;;;;20.20;99498.00;;;;2078547;28;20355;-52
2021/01/28 05:03:47;;;;;;;8.40;7.57;;;;;20.20;99482.00;;;;2078294;28;20225;-52